sensor_id;sensor_type;location;lat;lon;timestamp;P1;durP1;ratioP1;P2;durP2;ratioP2
5297;SDS011;14738;42.668;23.250;2023-02-28T00:01:16;26.87;;;19.80;;
5297;SDS011;14738;42.668;23.250;2023-02-28T00:03:42;25.00;;;18.90;;
5297;SDS011;14738;42.668;23.250;2023-02-28T00:06:07;26.60;;;20.07;;
5297;SDS011;14738;42.668;23.250;2023-02-28T00:08:34;29.43;;;21.57;;
5297;SDS011;14738;42.668;23.250;2023-02-28T00:11:04;26.53;;;19.23;;
5297;SDS011;14738;42.668;23.250;2023-02-28T00:13:32;26.47;;;18.97;;
5297;SDS011;14738;42.668;23.250;2023-02-28T00:16:02;26.80;;;19.10;;
5297;SDS011;14738;42.668;23.250;2023-02-28T00:18:39;25.00;;;18.20;;
5297;SDS011;14738;42.668;23.250;2023-02-28T00:21:05;22.53;;;17.87;;
5297;SDS011;14738;42.668;23.250;2023-02-28T00:23:31;30.53;;;18.50;;
5297;SDS011;14738;42.668;23.250;2023-02-28T00:25:57;25.10;;;18.33;;
5297;SDS011;14738;42.668;23.250;2023-02-28T00:28:23;27.93;;;19.37;;
5297;SDS011;14738;42.668;23.250;2023-02-28T00:30:48;27.83;;;19.70;;
5297;SDS011;14738;42.668;23.250;2023-02-28T00:33:13;26.47;;;17.80;;
5297;SDS011;14738;42.668;23.250;2023-02-28T00:35:39;29.33;;;17.53;;
5297;SDS011;14738;42.668;23.250;2023-02-28T00:38:05;22.60;;;16.60;;
5297;SDS011;14738;42.668;23.250;2023-02-28T00:40:30;22.87;;;17.30;;
5297;SDS011;14738;42.668;23.250;2023-02-28T00:42:56;20.53;;;15.77;;
5297;SDS011;14738;42.668;23.250;2023-02-28T00:45:22;19.10;;;14.60;;
5297;SDS011;14738;42.668;23.250;2023-02-28T00:47:47;18.80;;;15.40;;
5297;SDS011;14738;42.668;23.250;2023-02-28T00:50:16;19.40;;;16.20;;
5297;SDS011;14738;42.668;23.250;2023-02-28T00:52:42;23.17;;;16.77;;
5297;SDS011;14738;42.668;23.250;2023-02-28T00:55:08;18.80;;;15.93;;
5297;SDS011;14738;42.668;23.250;2023-02-28T00:57:34;20.90;;;16.57;;
5297;SDS011;14738;42.668;23.250;2023-02-28T01:00:00;28.27;;;19.67;;
5297;SDS011;14738;42.668;23.250;2023-02-28T01:02:25;27.60;;;20.20;;
5297;SDS011;14738;42.668;23.250;2023-02-28T01:04:50;26.30;;;19.47;;
5297;SDS011;14738;42.668;23.250;2023-02-28T01:07:16;27.70;;;21.20;;
5297;SDS011;14738;42.668;23.250;2023-02-28T01:09:41;27.83;;;21.00;;
5297;SDS011;14738;42.668;23.250;2023-02-28T01:12:07;32.07;;;24.17;;
5297;SDS011;14738;42.668;23.250;2023-02-28T01:14:33;39.63;;;24.57;;
5297;SDS011;14738;42.668;23.250;2023-02-28T01:17:00;36.60;;;26.30;;
5297;SDS011;14738;42.668;23.250;2023-02-28T01:19:25;41.70;;;26.53;;
5297;SDS011;14738;42.668;23.250;2023-02-28T01:21:51;46.53;;;26.17;;
5297;SDS011;14738;42.668;23.250;2023-02-28T01:24:16;55.57;;;27.53;;
5297;SDS011;14738;42.668;23.250;2023-02-28T01:26:41;45.63;;;26.37;;
5297;SDS011;14738;42.668;23.250;2023-02-28T01:29:07;41.93;;;25.27;;
5297;SDS011;14738;42.668;23.250;2023-02-28T01:31:32;40.50;;;22.90;;
5297;SDS011;14738;42.668;23.250;2023-02-28T01:33:58;54.13;;;24.60;;
5297;SDS011;14738;42.668;23.250;2023-02-28T01:36:24;40.70;;;24.60;;
5297;SDS011;14738;42.668;23.250;2023-02-28T01:38:50;38.80;;;23.27;;
5297;SDS011;14738;42.668;23.250;2023-02-28T01:41:18;86.63;;;23.90;;
5297;SDS011;14738;42.668;23.250;2023-02-28T01:44:01;43.30;;;22.70;;
5297;SDS011;14738;42.668;23.250;2023-02-28T01:46:32;42.37;;;23.30;;
5297;SDS011;14738;42.668;23.250;2023-02-28T01:54:24;42.20;;;24.70;;
5297;SDS011;14738;42.668;23.250;2023-02-28T01:57:02;48.13;;;22.40;;
5297;SDS011;14738;42.668;23.250;2023-02-28T01:59:53;48.03;;;24.90;;
5297;SDS011;14738;42.668;23.250;2023-02-28T02:02:20;63.93;;;23.70;;
5297;SDS011;14738;42.668;23.250;2023-02-28T02:04:50;39.40;;;23.83;;
5297;SDS011;14738;42.668;23.250;2023-02-28T02:07:20;44.37;;;23.50;;
5297;SDS011;14738;42.668;23.250;2023-02-28T02:09:46;49.33;;;23.23;;
5297;SDS011;14738;42.668;23.250;2023-02-28T02:15:01;48.63;;;25.53;;
5297;SDS011;14738;42.668;23.250;2023-02-28T02:20:12;62.47;;;25.90;;
5297;SDS011;14738;42.668;23.250;2023-02-28T02:22:59;69.80;;;25.20;;
5297;SDS011;14738;42.668;23.250;2023-02-28T02:39:31;51.70;;;26.17;;
5297;SDS011;14738;42.668;23.250;2023-02-28T02:42:09;41.03;;;25.23;;
5297;SDS011;14738;42.668;23.250;2023-02-28T02:44:42;47.97;;;26.40;;
5297;SDS011;14738;42.668;23.250;2023-02-28T02:47:20;45.73;;;26.23;;
5297;SDS011;14738;42.668;23.250;2023-02-28T02:49:50;52.97;;;26.80;;
5297;SDS011;14738;42.668;23.250;2023-02-28T02:52:20;45.33;;;24.23;;
5297;SDS011;14738;42.668;23.250;2023-02-28T02:54:49;51.93;;;27.10;;
5297;SDS011;14738;42.668;23.250;2023-02-28T02:57:40;45.37;;;24.43;;
5297;SDS011;14738;42.668;23.250;2023-02-28T03:00:12;38.90;;;22.73;;
5297;SDS011;14738;42.668;23.250;2023-02-28T03:02:39;42.57;;;25.33;;
5297;SDS011;14738;42.668;23.250;2023-02-28T03:05:08;46.30;;;24.23;;
5297;SDS011;14738;42.668;23.250;2023-02-28T03:07:39;46.57;;;23.73;;
5297;SDS011;14738;42.668;23.250;2023-02-28T03:10:25;42.60;;;22.60;;
5297;SDS011;14738;42.668;23.250;2023-02-28T03:13:08;43.67;;;24.57;;
5297;SDS011;14738;42.668;23.250;2023-02-28T03:18:24;77.50;;;24.70;;
5297;SDS011;14738;42.668;23.250;2023-02-28T03:21:01;106.27;;;23.27;;
5297;SDS011;14738;42.668;23.250;2023-02-28T03:23:36;45.90;;;22.43;;
5297;SDS011;14738;42.668;23.250;2023-02-28T03:26:12;69.03;;;23.30;;
5297;SDS011;14738;42.668;23.250;2023-02-28T03:28:50;77.03;;;24.13;;
5297;SDS011;14738;42.668;23.250;2023-02-28T03:31:33;100.17;;;24.43;;
5297;SDS011;14738;42.668;23.250;2023-02-28T03:34:17;91.83;;;25.07;;
5297;SDS011;14738;42.668;23.250;2023-02-28T03:36:50;80.33;;;26.30;;
5297;SDS011;14738;42.668;23.250;2023-02-28T03:39:22;68.77;;;28.10;;
5297;SDS011;14738;42.668;23.250;2023-02-28T03:47:14;99.67;;;27.10;;
5297;SDS011;14738;42.668;23.250;2023-02-28T03:52:24;103.53;;;27.70;;
5297;SDS011;14738;42.668;23.250;2023-02-28T03:54:56;49.60;;;27.37;;
5297;SDS011;14738;42.668;23.250;2023-02-28T03:57:39;79.27;;;27.83;;
5297;SDS011;14738;42.668;23.250;2023-02-28T04:00:20;66.97;;;26.27;;
5297;SDS011;14738;42.668;23.250;2023-02-28T04:02:53;124.80;;;28.73;;
5297;SDS011;14738;42.668;23.250;2023-02-28T04:05:19;55.50;;;27.93;;
5297;SDS011;14738;42.668;23.250;2023-02-28T04:07:46;101.37;;;30.83;;
5297;SDS011;14738;42.668;23.250;2023-02-28T04:10:11;53.80;;;28.37;;
5297;SDS011;14738;42.668;23.250;2023-02-28T04:12:38;137.33;;;29.27;;
5297;SDS011;14738;42.668;23.250;2023-02-28T04:15:04;95.40;;;29.60;;
5297;SDS011;14738;42.668;23.250;2023-02-28T04:17:30;84.87;;;29.43;;
5297;SDS011;14738;42.668;23.250;2023-02-28T04:19:56;72.73;;;30.60;;
5297;SDS011;14738;42.668;23.250;2023-02-28T04:22:22;74.23;;;31.50;;
5297;SDS011;14738;42.668;23.250;2023-02-28T04:24:50;101.40;;;31.30;;
5297;SDS011;14738;42.668;23.250;2023-02-28T04:27:16;55.93;;;29.07;;
5297;SDS011;14738;42.668;23.250;2023-02-28T04:29:41;108.60;;;30.00;;
5297;SDS011;14738;42.668;23.250;2023-02-28T04:32:09;66.97;;;29.27;;
5297;SDS011;14738;42.668;23.250;2023-02-28T04:34:35;73.03;;;30.33;;
5297;SDS011;14738;42.668;23.250;2023-02-28T04:37:01;55.70;;;28.60;;
5297;SDS011;14738;42.668;23.250;2023-02-28T04:39:28;82.43;;;32.90;;
5297;SDS011;14738;42.668;23.250;2023-02-28T04:41:54;124.70;;;33.23;;
5297;SDS011;14738;42.668;23.250;2023-02-28T04:44:20;67.23;;;29.47;;
5297;SDS011;14738;42.668;23.250;2023-02-28T04:46:47;66.90;;;30.90;;
5297;SDS011;14738;42.668;23.250;2023-02-28T04:49:13;72.27;;;30.63;;
5297;SDS011;14738;42.668;23.250;2023-02-28T04:51:38;76.83;;;31.37;;
5297;SDS011;14738;42.668;23.250;2023-02-28T04:54:04;52.50;;;27.87;;
5297;SDS011;14738;42.668;23.250;2023-02-28T04:56:30;73.70;;;27.13;;
5297;SDS011;14738;42.668;23.250;2023-02-28T04:58:55;70.93;;;28.10;;
5297;SDS011;14738;42.668;23.250;2023-02-28T05:03:54;56.87;;;27.90;;
5297;SDS011;14738;42.668;23.250;2023-02-28T05:06:22;54.40;;;27.73;;
5297;SDS011;14738;42.668;23.250;2023-02-28T05:08:49;61.77;;;29.27;;
5297;SDS011;14738;42.668;23.250;2023-02-28T05:11:22;67.33;;;29.80;;
5297;SDS011;14738;42.668;23.250;2023-02-28T05:13:50;53.60;;;26.50;;
5297;SDS011;14738;42.668;23.250;2023-02-28T05:16:16;52.27;;;27.23;;
5297;SDS011;14738;42.668;23.250;2023-02-28T05:18:41;64.80;;;30.10;;
5297;SDS011;14738;42.668;23.250;2023-02-28T05:23:54;54.77;;;28.70;;
5297;SDS011;14738;42.668;23.250;2023-02-28T05:26:21;64.37;;;28.10;;
5297;SDS011;14738;42.668;23.250;2023-02-28T05:28:47;55.30;;;28.40;;
5297;SDS011;14738;42.668;23.250;2023-02-28T05:31:12;58.57;;;33.40;;
5297;SDS011;14738;42.668;23.250;2023-02-28T05:33:38;62.83;;;31.67;;
5297;SDS011;14738;42.668;23.250;2023-02-28T05:36:04;58.40;;;31.30;;
5297;SDS011;14738;42.668;23.250;2023-02-28T05:38:30;55.10;;;29.07;;
5297;SDS011;14738;42.668;23.250;2023-02-28T05:40:56;46.50;;;27.53;;
5297;SDS011;14738;42.668;23.250;2023-02-28T05:43:21;51.17;;;28.67;;
5297;SDS011;14738;42.668;23.250;2023-02-28T05:45:47;50.23;;;27.00;;
5297;SDS011;14738;42.668;23.250;2023-02-28T05:48:13;56.53;;;28.33;;
5297;SDS011;14738;42.668;23.250;2023-02-28T05:50:38;50.23;;;28.33;;
5297;SDS011;14738;42.668;23.250;2023-02-28T05:53:04;51.87;;;27.07;;
5297;SDS011;14738;42.668;23.250;2023-02-28T05:55:29;48.33;;;27.53;;
5297;SDS011;14738;42.668;23.250;2023-02-28T05:57:55;49.30;;;27.57;;
5297;SDS011;14738;42.668;23.250;2023-02-28T06:00:21;48.10;;;26.83;;
5297;SDS011;14738;42.668;23.250;2023-02-28T06:02:47;45.87;;;27.77;;
5297;SDS011;14738;42.668;23.250;2023-02-28T06:05:14;57.53;;;32.50;;
5297;SDS011;14738;42.668;23.250;2023-02-28T06:07:41;50.27;;;29.07;;
5297;SDS011;14738;42.668;23.250;2023-02-28T06:10:08;56.73;;;30.07;;
5297;SDS011;14738;42.668;23.250;2023-02-28T06:12:35;35.43;;;23.30;;
5297;SDS011;14738;42.668;23.250;2023-02-28T06:15:00;43.50;;;24.60;;
5297;SDS011;14738;42.668;23.250;2023-02-28T06:17:26;40.50;;;24.10;;
5297;SDS011;14738;42.668;23.250;2023-02-28T06:19:51;41.60;;;23.80;;
5297;SDS011;14738;42.668;23.250;2023-02-28T06:22:16;40.67;;;24.53;;
5297;SDS011;14738;42.668;23.250;2023-02-28T06:24:42;44.90;;;24.33;;
5297;SDS011;14738;42.668;23.250;2023-02-28T06:27:07;34.87;;;23.10;;
5297;SDS011;14738;42.668;23.250;2023-02-28T06:29:33;36.70;;;23.60;;
5297;SDS011;14738;42.668;23.250;2023-02-28T06:31:59;36.03;;;23.30;;
5297;SDS011;14738;42.668;23.250;2023-02-28T06:34:25;56.77;;;33.00;;
5297;SDS011;14738;42.668;23.250;2023-02-28T06:36:51;36.63;;;24.10;;
5297;SDS011;14738;42.668;23.250;2023-02-28T06:39:17;37.13;;;23.13;;
5297;SDS011;14738;42.668;23.250;2023-02-28T06:41:43;34.53;;;22.50;;
5297;SDS011;14738;42.668;23.250;2023-02-28T06:44:14;35.47;;;23.80;;
5297;SDS011;14738;42.668;23.250;2023-02-28T06:46:41;35.07;;;24.30;;
5297;SDS011;14738;42.668;23.250;2023-02-28T06:49:07;36.93;;;23.80;;
5297;SDS011;14738;42.668;23.250;2023-02-28T06:51:34;37.57;;;24.53;;
5297;SDS011;14738;42.668;23.250;2023-02-28T06:54:01;40.00;;;26.40;;
5297;SDS011;14738;42.668;23.250;2023-02-28T06:56:27;39.07;;;25.53;;
5297;SDS011;14738;42.668;23.250;2023-02-28T06:58:53;45.63;;;26.87;;
5297;SDS011;14738;42.668;23.250;2023-02-28T07:01:19;50.90;;;27.87;;
5297;SDS011;14738;42.668;23.250;2023-02-28T07:03:45;58.37;;;29.47;;
5297;SDS011;14738;42.668;23.250;2023-02-28T07:06:11;54.40;;;27.90;;
5297;SDS011;14738;42.668;23.250;2023-02-28T07:08:36;57.77;;;30.20;;
5297;SDS011;14738;42.668;23.250;2023-02-28T07:11:02;65.70;;;30.37;;
5297;SDS011;14738;42.668;23.250;2023-02-28T07:13:28;67.03;;;29.10;;
5297;SDS011;14738;42.668;23.250;2023-02-28T07:15:54;59.57;;;29.87;;
5297;SDS011;14738;42.668;23.250;2023-02-28T07:18:23;57.70;;;31.17;;
5297;SDS011;14738;42.668;23.250;2023-02-28T07:20:49;57.23;;;30.67;;
5297;SDS011;14738;42.668;23.250;2023-02-28T07:23:15;55.73;;;31.43;;
5297;SDS011;14738;42.668;23.250;2023-02-28T07:25:40;59.23;;;32.07;;
5297;SDS011;14738;42.668;23.250;2023-02-28T07:28:06;62.03;;;31.80;;
5297;SDS011;14738;42.668;23.250;2023-02-28T07:30:31;60.60;;;34.40;;
5297;SDS011;14738;42.668;23.250;2023-02-28T07:32:57;65.27;;;33.27;;
5297;SDS011;14738;42.668;23.250;2023-02-28T07:35:22;73.07;;;32.83;;
5297;SDS011;14738;42.668;23.250;2023-02-28T07:37:48;58.60;;;31.03;;
5297;SDS011;14738;42.668;23.250;2023-02-28T07:40:14;66.70;;;33.63;;
5297;SDS011;14738;42.668;23.250;2023-02-28T07:42:40;77.87;;;33.63;;
5297;SDS011;14738;42.668;23.250;2023-02-28T07:45:06;66.83;;;35.97;;
5297;SDS011;14738;42.668;23.250;2023-02-28T07:47:33;68.53;;;33.47;;
5297;SDS011;14738;42.668;23.250;2023-02-28T07:49:59;61.27;;;34.93;;
5297;SDS011;14738;42.668;23.250;2023-02-28T07:52:24;71.93;;;35.10;;
5297;SDS011;14738;42.668;23.250;2023-02-28T07:54:50;62.27;;;32.23;;
5297;SDS011;14738;42.668;23.250;2023-02-28T07:57:16;67.43;;;36.10;;
5297;SDS011;14738;42.668;23.250;2023-02-28T07:59:41;64.93;;;33.53;;
5297;SDS011;14738;42.668;23.250;2023-02-28T08:02:10;62.97;;;35.03;;
5297;SDS011;14738;42.668;23.250;2023-02-28T08:04:38;68.77;;;35.37;;
5297;SDS011;14738;42.668;23.250;2023-02-28T08:07:03;64.10;;;34.17;;
5297;SDS011;14738;42.668;23.250;2023-02-28T08:09:29;61.47;;;33.30;;
5297;SDS011;14738;42.668;23.250;2023-02-28T08:11:55;74.30;;;34.93;;
5297;SDS011;14738;42.668;23.250;2023-02-28T08:14:20;61.27;;;35.27;;
5297;SDS011;14738;42.668;23.250;2023-02-28T08:16:46;67.37;;;35.83;;
5297;SDS011;14738;42.668;23.250;2023-02-28T08:19:13;62.87;;;33.33;;
5297;SDS011;14738;42.668;23.250;2023-02-28T08:21:38;57.77;;;32.63;;
5297;SDS011;14738;42.668;23.250;2023-02-28T08:24:04;61.90;;;33.90;;
5297;SDS011;14738;42.668;23.250;2023-02-28T08:26:30;57.60;;;32.33;;
5297;SDS011;14738;42.668;23.250;2023-02-28T08:28:56;56.63;;;32.73;;
5297;SDS011;14738;42.668;23.250;2023-02-28T08:31:21;55.67;;;31.63;;
5297;SDS011;14738;42.668;23.250;2023-02-28T08:33:48;65.30;;;35.13;;
5297;SDS011;14738;42.668;23.250;2023-02-28T08:36:16;107.53;;;78.23;;
5297;SDS011;14738;42.668;23.250;2023-02-28T08:38:42;105.70;;;65.00;;
5297;SDS011;14738;42.668;23.250;2023-02-28T08:41:09;66.60;;;43.37;;
5297;SDS011;14738;42.668;23.250;2023-02-28T08:43:36;55.20;;;33.00;;
5297;SDS011;14738;42.668;23.250;2023-02-28T08:46:04;60.60;;;33.23;;
5297;SDS011;14738;42.668;23.250;2023-02-28T08:48:31;57.73;;;32.63;;
5297;SDS011;14738;42.668;23.250;2023-02-28T08:50:58;67.20;;;34.03;;
5297;SDS011;14738;42.668;23.250;2023-02-28T08:53:26;55.23;;;32.13;;
5297;SDS011;14738;42.668;23.250;2023-02-28T08:55:55;55.83;;;32.40;;
5297;SDS011;14738;42.668;23.250;2023-02-28T08:58:22;56.67;;;32.23;;
5297;SDS011;14738;42.668;23.250;2023-02-28T09:00:47;54.97;;;33.20;;
5297;SDS011;14738;42.668;23.250;2023-02-28T09:03:13;52.73;;;32.83;;
5297;SDS011;14738;42.668;23.250;2023-02-28T09:05:38;52.13;;;31.07;;
5297;SDS011;14738;42.668;23.250;2023-02-28T09:08:03;58.90;;;33.30;;
5297;SDS011;14738;42.668;23.250;2023-02-28T09:10:29;59.03;;;33.70;;
5297;SDS011;14738;42.668;23.250;2023-02-28T09:12:55;53.40;;;32.57;;
5297;SDS011;14738;42.668;23.250;2023-02-28T09:15:20;53.80;;;33.50;;
5297;SDS011;14738;42.668;23.250;2023-02-28T09:17:45;68.33;;;36.03;;
5297;SDS011;14738;42.668;23.250;2023-02-28T09:20:11;60.17;;;33.23;;
5297;SDS011;14738;42.668;23.250;2023-02-28T09:22:37;56.10;;;33.80;;
5297;SDS011;14738;42.668;23.250;2023-02-28T09:25:02;65.87;;;34.37;;
5297;SDS011;14738;42.668;23.250;2023-02-28T09:27:28;61.73;;;35.30;;
5297;SDS011;14738;42.668;23.250;2023-02-28T09:29:53;62.13;;;36.17;;
5297;SDS011;14738;42.668;23.250;2023-02-28T09:32:19;56.30;;;34.43;;
5297;SDS011;14738;42.668;23.250;2023-02-28T09:34:44;56.47;;;34.40;;
5297;SDS011;14738;42.668;23.250;2023-02-28T09:37:09;58.97;;;34.40;;
5297;SDS011;14738;42.668;23.250;2023-02-28T09:39:35;62.83;;;33.23;;
5297;SDS011;14738;42.668;23.250;2023-02-28T09:42:00;53.10;;;32.20;;
5297;SDS011;14738;42.668;23.250;2023-02-28T09:47:10;60.63;;;36.00;;
5297;SDS011;14738;42.668;23.250;2023-02-28T09:49:41;52.77;;;32.83;;
5297;SDS011;14738;42.668;23.250;2023-02-28T09:52:21;61.20;;;32.80;;
5297;SDS011;14738;42.668;23.250;2023-02-28T09:54:52;59.40;;;34.40;;
5297;SDS011;14738;42.668;23.250;2023-02-28T09:57:29;54.57;;;33.40;;
5297;SDS011;14738;42.668;23.250;2023-02-28T10:08:22;56.90;;;33.37;;
5297;SDS011;14738;42.668;23.250;2023-02-28T10:11:00;55.63;;;33.40;;
5297;SDS011;14738;42.668;23.250;2023-02-28T10:16:35;60.13;;;35.70;;
5297;SDS011;14738;42.668;23.250;2023-02-28T10:19:10;55.13;;;32.80;;
5297;SDS011;14738;42.668;23.250;2023-02-28T10:21:46;49.70;;;32.20;;
5297;SDS011;14738;42.668;23.250;2023-02-28T10:24:27;60.77;;;35.10;;
5297;SDS011;14738;42.668;23.250;2023-02-28T10:26:59;56.77;;;37.53;;
5297;SDS011;14738;42.668;23.250;2023-02-28T10:29:50;58.80;;;33.67;;
5297;SDS011;14738;42.668;23.250;2023-02-28T10:32:22;56.57;;;36.80;;
5297;SDS011;14738;42.668;23.250;2023-02-28T10:35:32;59.87;;;38.00;;
5297;SDS011;14738;42.668;23.250;2023-02-28T10:37:50;55.67;;;37.47;;
5297;SDS011;14738;42.668;23.250;2023-02-28T10:42:55;49.73;;;36.03;;
5297;SDS011;14738;42.668;23.250;2023-02-28T10:45:34;49.93;;;33.20;;
5297;SDS011;14738;42.668;23.250;2023-02-28T10:58:22;41.73;;;23.60;;
5297;SDS011;14738;42.668;23.250;2023-02-28T11:00:49;32.20;;;19.97;;
5297;SDS011;14738;42.668;23.250;2023-02-28T11:03:32;28.70;;;18.97;;
5297;SDS011;14738;42.668;23.250;2023-02-28T11:06:04;27.27;;;16.30;;
5297;SDS011;14738;42.668;23.250;2023-02-28T11:08:43;24.77;;;13.10;;
5297;SDS011;14738;42.668;23.250;2023-02-28T11:11:12;23.63;;;13.10;;
5297;SDS011;14738;42.668;23.250;2023-02-28T11:13:38;20.30;;;12.50;;
5297;SDS011;14738;42.668;23.250;2023-02-28T11:16:05;34.20;;;14.73;;
5297;SDS011;14738;42.668;23.250;2023-02-28T11:18:37;24.87;;;11.97;;
5297;SDS011;14738;42.668;23.250;2023-02-28T11:21:06;23.13;;;13.10;;
5297;SDS011;14738;42.668;23.250;2023-02-28T11:23:33;19.10;;;13.77;;
5297;SDS011;14738;42.668;23.250;2023-02-28T11:26:05;23.13;;;11.80;;
5297;SDS011;14738;42.668;23.250;2023-02-28T11:28:35;20.43;;;13.20;;
5297;SDS011;14738;42.668;23.250;2023-02-28T11:33:43;26.50;;;14.10;;
5297;SDS011;14738;42.668;23.250;2023-02-28T11:38:47;21.50;;;12.93;;
5297;SDS011;14738;42.668;23.250;2023-02-28T11:52:40;19.67;;;13.33;;
5297;SDS011;14738;42.668;23.250;2023-02-28T11:55:24;22.90;;;15.40;;
5297;SDS011;14738;42.668;23.250;2023-02-28T12:09:05;21.00;;;15.13;;
5297;SDS011;14738;42.668;23.250;2023-02-28T12:17:38;24.30;;;15.30;;
5297;SDS011;14738;42.668;23.250;2023-02-28T12:23:47;34.53;;;14.47;;
5297;SDS011;14738;42.668;23.250;2023-02-28T12:28:59;24.23;;;13.47;;
5297;SDS011;14738;42.668;23.250;2023-02-28T12:31:36;26.30;;;16.03;;
5297;SDS011;14738;42.668;23.250;2023-02-28T12:34:10;23.87;;;14.90;;
5297;SDS011;14738;42.668;23.250;2023-02-28T12:36:41;24.63;;;15.40;;
5297;SDS011;14738;42.668;23.250;2023-02-28T12:39:13;26.37;;;14.30;;
5297;SDS011;14738;42.668;23.250;2023-02-28T12:41:47;21.17;;;14.20;;
5297;SDS011;14738;42.668;23.250;2023-02-28T12:44:26;20.90;;;13.67;;
5297;SDS011;14738;42.668;23.250;2023-02-28T12:46:59;28.07;;;15.27;;
5297;SDS011;14738;42.668;23.250;2023-02-28T12:49:38;27.03;;;15.63;;
5297;SDS011;14738;42.668;23.250;2023-02-28T12:52:07;22.63;;;13.83;;
5297;SDS011;14738;42.668;23.250;2023-02-28T12:54:56;28.30;;;13.97;;
5297;SDS011;14738;42.668;23.250;2023-02-28T12:57:50;27.80;;;15.93;;
5297;SDS011;14738;42.668;23.250;2023-02-28T13:00:25;31.80;;;17.57;;
5297;SDS011;14738;42.668;23.250;2023-02-28T13:03:41;25.83;;;14.93;;
5297;SDS011;14738;42.668;23.250;2023-02-28T13:06:20;28.93;;;15.27;;
5297;SDS011;14738;42.668;23.250;2023-02-28T13:09:10;31.33;;;15.90;;
5297;SDS011;14738;42.668;23.250;2023-02-28T13:14:06;27.20;;;16.33;;
5297;SDS011;14738;42.668;23.250;2023-02-28T13:16:54;21.37;;;14.53;;
5297;SDS011;14738;42.668;23.250;2023-02-28T13:19:26;17.93;;;11.00;;
5297;SDS011;14738;42.668;23.250;2023-02-28T13:21:57;19.93;;;13.27;;
5297;SDS011;14738;42.668;23.250;2023-02-28T13:27:12;23.73;;;14.63;;
5297;SDS011;14738;42.668;23.250;2023-02-28T13:29:50;22.63;;;13.80;;
5297;SDS011;14738;42.668;23.250;2023-02-28T13:39:46;22.57;;;13.40;;
5297;SDS011;14738;42.668;23.250;2023-02-28T13:42:34;26.50;;;12.70;;
5297;SDS011;14738;42.668;23.250;2023-02-28T13:50:50;23.67;;;13.27;;
5297;SDS011;14738;42.668;23.250;2023-02-28T13:58:41;35.73;;;11.63;;
5297;SDS011;14738;42.668;23.250;2023-02-28T14:01:16;19.50;;;10.20;;
5297;SDS011;14738;42.668;23.250;2023-02-28T14:06:35;17.23;;;10.50;;
5297;SDS011;14738;42.668;23.250;2023-02-28T14:09:21;18.97;;;10.40;;
5297;SDS011;14738;42.668;23.250;2023-02-28T14:11:48;20.60;;;11.10;;
5297;SDS011;14738;42.668;23.250;2023-02-28T14:17:02;20.50;;;11.17;;
5297;SDS011;14738;42.668;23.250;2023-02-28T14:19:30;15.87;;;9.93;;
5297;SDS011;14738;42.668;23.250;2023-02-28T14:22:21;22.60;;;10.20;;
5297;SDS011;14738;42.668;23.250;2023-02-28T14:38:25;24.17;;;10.73;;
5297;SDS011;14738;42.668;23.250;2023-02-28T14:40:54;21.20;;;12.40;;
5297;SDS011;14738;42.668;23.250;2023-02-28T14:43:24;16.00;;;9.87;;
5297;SDS011;14738;42.668;23.250;2023-02-28T14:45:51;19.83;;;10.80;;
5297;SDS011;14738;42.668;23.250;2023-02-28T14:48:20;17.93;;;9.23;;
5297;SDS011;14738;42.668;23.250;2023-02-28T14:50:54;18.10;;;10.50;;
5297;SDS011;14738;42.668;23.250;2023-02-28T14:53:23;20.80;;;10.53;;
5297;SDS011;14738;42.668;23.250;2023-02-28T14:55:52;21.50;;;11.20;;
5297;SDS011;14738;42.668;23.250;2023-02-28T14:58:21;18.03;;;9.77;;
5297;SDS011;14738;42.668;23.250;2023-02-28T15:00:50;20.93;;;12.87;;
5297;SDS011;14738;42.668;23.250;2023-02-28T15:03:20;19.53;;;10.60;;
5297;SDS011;14738;42.668;23.250;2023-02-28T15:05:52;20.13;;;11.67;;
5297;SDS011;14738;42.668;23.250;2023-02-28T15:08:22;17.93;;;10.60;;
5297;SDS011;14738;42.668;23.250;2023-02-28T15:10:58;17.23;;;10.07;;
5297;SDS011;14738;42.668;23.250;2023-02-28T15:13:35;20.23;;;10.00;;
5297;SDS011;14738;42.668;23.250;2023-02-28T15:16:04;24.03;;;13.93;;
5297;SDS011;14738;42.668;23.250;2023-02-28T15:18:42;24.50;;;14.83;;
5297;SDS011;14738;42.668;23.250;2023-02-28T15:21:12;28.13;;;18.57;;
5297;SDS011;14738;42.668;23.250;2023-02-28T15:23:40;25.63;;;14.63;;
5297;SDS011;14738;42.668;23.250;2023-02-28T15:26:12;27.30;;;14.70;;
5297;SDS011;14738;42.668;23.250;2023-02-28T15:28:44;18.37;;;11.80;;
5297;SDS011;14738;42.668;23.250;2023-02-28T15:31:26;38.17;;;19.97;;
5297;SDS011;14738;42.668;23.250;2023-02-28T15:34:06;23.30;;;12.90;;
5297;SDS011;14738;42.668;23.250;2023-02-28T15:36:40;21.27;;;13.50;;
5297;SDS011;14738;42.668;23.250;2023-02-28T15:39:18;19.77;;;11.97;;
5297;SDS011;14738;42.668;23.250;2023-02-28T15:41:46;20.50;;;10.03;;
5297;SDS011;14738;42.668;23.250;2023-02-28T15:44:27;16.77;;;11.50;;
5297;SDS011;14738;42.668;23.250;2023-02-28T15:49:29;16.70;;;10.67;;
5297;SDS011;14738;42.668;23.250;2023-02-28T15:52:15;18.40;;;11.90;;
5297;SDS011;14738;42.668;23.250;2023-02-28T15:54:44;22.30;;;11.80;;
5297;SDS011;14738;42.668;23.250;2023-02-28T15:57:13;19.50;;;11.13;;
5297;SDS011;14738;42.668;23.250;2023-02-28T15:59:48;17.23;;;10.37;;
5297;SDS011;14738;42.668;23.250;2023-02-28T16:02:20;14.83;;;11.50;;
5297;SDS011;14738;42.668;23.250;2023-02-28T16:04:57;21.10;;;11.70;;
5297;SDS011;14738;42.668;23.250;2023-02-28T16:07:24;18.00;;;11.30;;
5297;SDS011;14738;42.668;23.250;2023-02-28T16:09:50;14.10;;;10.77;;
5297;SDS011;14738;42.668;23.250;2023-02-28T16:12:15;13.77;;;9.40;;
5297;SDS011;14738;42.668;23.250;2023-02-28T16:14:41;12.67;;;9.60;;
5297;SDS011;14738;42.668;23.250;2023-02-28T16:17:12;13.23;;;9.70;;
5297;SDS011;14738;42.668;23.250;2023-02-28T16:19:45;13.80;;;10.67;;
5297;SDS011;14738;42.668;23.250;2023-02-28T16:22:11;19.50;;;9.27;;
5297;SDS011;14738;42.668;23.250;2023-02-28T16:24:36;16.57;;;9.80;;
5297;SDS011;14738;42.668;23.250;2023-02-28T16:27:03;15.50;;;10.33;;
5297;SDS011;14738;42.668;23.250;2023-02-28T16:29:30;13.93;;;11.03;;
5297;SDS011;14738;42.668;23.250;2023-02-28T16:31:58;18.07;;;12.60;;
5297;SDS011;14738;42.668;23.250;2023-02-28T16:34:24;17.83;;;11.50;;
5297;SDS011;14738;42.668;23.250;2023-02-28T16:36:50;16.80;;;12.30;;
5297;SDS011;14738;42.668;23.250;2023-02-28T16:39:16;16.67;;;10.33;;
5297;SDS011;14738;42.668;23.250;2023-02-28T16:41:43;14.87;;;11.27;;
5297;SDS011;14738;42.668;23.250;2023-02-28T16:44:12;12.87;;;10.40;;
5297;SDS011;14738;42.668;23.250;2023-02-28T16:46:39;9.93;;;8.80;;
5297;SDS011;14738;42.668;23.250;2023-02-28T16:49:04;10.83;;;9.70;;
5297;SDS011;14738;42.668;23.250;2023-02-28T16:51:36;13.77;;;9.43;;
5297;SDS011;14738;42.668;23.250;2023-02-28T16:54:02;11.33;;;10.07;;
5297;SDS011;14738;42.668;23.250;2023-02-28T16:56:27;13.80;;;10.27;;
5297;SDS011;14738;42.668;23.250;2023-02-28T16:58:54;9.63;;;8.63;;
5297;SDS011;14738;42.668;23.250;2023-02-28T17:01:24;14.80;;;11.27;;
5297;SDS011;14738;42.668;23.250;2023-02-28T17:03:52;11.30;;;9.13;;
5297;SDS011;14738;42.668;23.250;2023-02-28T17:06:19;15.07;;;9.50;;
5297;SDS011;14738;42.668;23.250;2023-02-28T17:08:47;10.07;;;7.27;;